sensor_id;sensor_type;location;lat;lon;timestamp;pressure;altitude;pressure_sealevel;temperature;humidity
79584;BME280;69053;57.338;18.700;2024-03-06T00:01:09;102866.81;;;5.76;62.74
79584;BME280;69053;57.338;18.700;2024-03-06T00:04:10;102872.97;;;5.78;62.95
79584;BME280;69053;57.338;18.700;2024-03-06T00:07:10;102867.56;;;5.78;62.62
79584;BME280;69053;57.338;18.700;2024-03-06T00:10:11;102886.03;;;5.73;63.06
79584;BME280;69053;57.338;18.700;2024-03-06T00:13:11;102883.81;;;5.67;63.08
79584;BME280;69053;57.338;18.700;2024-03-06T00:16:12;102887.00;;;5.72;63.19
79584;BME280;69053;57.338;18.700;2024-03-06T00:19:12;102873.59;;;5.70;63.16
79584;BME280;69053;57.338;18.700;2024-03-06T00:22:13;102871.50;;;5.74;63.56
79584;BME280;69053;57.338;18.700;2024-03-06T00:25:14;102878.88;;;5.72;62.74
79584;BME280;69053;57.338;18.700;2024-03-06T00:28:14;102870.31;;;5.67;63.42
79584;BME280;69053;57.338;18.700;2024-03-06T00:31:15;102873.00;;;5.67;63.04
79584;BME280;69053;57.338;18.700;2024-03-06T00:34:15;102872.28;;;5.64;63.19
79584;BME280;69053;57.338;18.700;2024-03-06T00:37:16;102886.06;;;5.61;63.38
79584;BME280;69053;57.338;18.700;2024-03-06T00:40:16;102882.50;;;5.61;63.28
79584;BME280;69053;57.338;18.700;2024-03-06T00:43:16;102872.53;;;5.61;63.18
79584;BME280;69053;57.338;18.700;2024-03-06T00:46:17;102876.75;;;5.54;63.56
79584;BME280;69053;57.338;18.700;2024-03-06T00:49:17;102876.75;;;5.54;63.08
79584;BME280;69053;57.338;18.700;2024-03-06T00:52:18;102873.72;;;5.48;63.30
79584;BME280;69053;57.338;18.700;2024-03-06T00:55:18;102881.22;;;5.44;63.33
79584;BME280;69053;57.338;18.700;2024-03-06T00:58:19;102890.06;;;5.46;63.75
79584;BME280;69053;57.338;18.700;2024-03-06T01:01:19;102896.72;;;5.42;63.24
79584;BME280;69053;57.338;18.700;2024-03-06T01:04:20;102902.75;;;5.34;63.58
79584;BME280;69053;57.338;18.700;2024-03-06T01:07:20;102895.53;;;5.23;63.51
79584;BME280;69053;57.338;18.700;2024-03-06T01:10:21;102904.91;;;5.19;63.75
79584;BME280;69053;57.338;18.700;2024-03-06T01:13:21;102902.31;;;5.18;63.84
79584;BME280;69053;57.338;18.700;2024-03-06T01:16:22;102915.97;;;5.16;64.05
79584;BME280;69053;57.338;18.700;2024-03-06T01:19:23;102910.19;;;5.10;63.44
79584;BME280;69053;57.338;18.700;2024-03-06T01:22:23;102916.97;;;5.04;63.40
79584;BME280;69053;57.338;18.700;2024-03-06T01:25:24;102915.25;;;5.03;63.38
79584;BME280;69053;57.338;18.700;2024-03-06T01:28:24;102913.91;;;4.97;63.38
79584;BME280;69053;57.338;18.700;2024-03-06T01:31:25;102914.63;;;4.88;63.75
79584;BME280;69053;57.338;18.700;2024-03-06T01:34:25;102914.03;;;4.84;63.63
79584;BME280;69053;57.338;18.700;2024-03-06T01:37:26;102915.16;;;4.82;63.65
79584;BME280;69053;57.338;18.700;2024-03-06T01:40:26;102917.25;;;4.78;63.56
79584;BME280;69053;57.338;18.700;2024-03-06T01:43:27;102908.53;;;4.75;63.68
79584;BME280;69053;57.338;18.700;2024-03-06T01:46:28;102916.38;;;4.78;63.60
79584;BME280;69053;57.338;18.700;2024-03-06T01:49:28;102906.69;;;4.75;63.92
79584;BME280;69053;57.338;18.700;2024-03-06T01:52:29;102900.56;;;4.73;63.37
79584;BME280;69053;57.338;18.700;2024-03-06T01:55:29;102907.16;;;4.69;64.32
79584;BME280;69053;57.338;18.700;2024-03-06T01:58:30;102899.81;;;4.71;63.84
79584;BME280;69053;57.338;18.700;2024-03-06T02:01:32;102902.38;;;4.73;64.14
79584;BME280;69053;57.338;18.700;2024-03-06T02:04:33;102900.31;;;4.76;64.15
79584;BME280;69053;57.338;18.700;2024-03-06T02:07:33;102895.66;;;4.78;64.32
79584;BME280;69053;57.338;18.700;2024-03-06T02:10:35;102893.91;;;4.88;64.46
79584;BME280;69053;57.338;18.700;2024-03-06T02:13:35;102895.50;;;4.91;64.44
79584;BME280;69053;57.338;18.700;2024-03-06T02:16:39;102892.19;;;4.99;64.43
79584;BME280;69053;57.338;18.700;2024-03-06T02:19:40;102888.94;;;5.05;63.94
79584;BME280;69053;57.338;18.700;2024-03-06T02:22:41;102889.44;;;5.10;64.77
79584;BME280;69053;57.338;18.700;2024-03-06T02:25:41;102902.94;;;5.10;64.46
79584;BME280;69053;57.338;18.700;2024-03-06T02:28:52;102908.47;;;5.08;64.99
79584;BME280;69053;57.338;18.700;2024-03-06T02:31:53;102902.06;;;5.21;64.32
79584;BME280;69053;57.338;18.700;2024-03-06T02:34:53;102902.06;;;5.21;64.53
79584;BME280;69053;57.338;18.700;2024-03-06T02:37:54;102899.38;;;5.21;65.29
79584;BME280;69053;57.338;18.700;2024-03-06T02:40:57;102899.50;;;5.19;64.53
79584;BME280;69053;57.338;18.700;2024-03-06T02:43:57;102906.22;;;5.25;64.74
79584;BME280;69053;57.338;18.700;2024-03-06T02:46:57;102911.38;;;5.28;64.97
79584;BME280;69053;57.338;18.700;2024-03-06T02:49:58;102917.88;;;5.37;64.66
79584;BME280;69053;57.338;18.700;2024-03-06T02:52:58;102918.63;;;5.28;64.76
79584;BME280;69053;57.338;18.700;2024-03-06T02:55:59;102928.16;;;5.43;64.48
79584;BME280;69053;57.338;18.700;2024-03-06T02:58:59;102928.91;;;5.45;64.33
79584;BME280;69053;57.338;18.700;2024-03-06T03:02:03;102927.06;;;5.45;64.18
79584;BME280;69053;57.338;18.700;2024-03-06T03:05:04;102932.84;;;5.41;64.27
79584;BME280;69053;57.338;18.700;2024-03-06T03:08:05;102931.59;;;5.45;64.31
79584;BME280;69053;57.338;18.700;2024-03-06T03:11:06;102936.25;;;5.43;63.57
79584;BME280;69053;57.338;18.700;2024-03-06T03:14:08;102936.13;;;5.44;64.14
79584;BME280;69053;57.338;18.700;2024-03-06T03:17:08;102936.38;;;5.41;63.99
79584;BME280;69053;57.338;18.700;2024-03-06T03:20:09;102937.25;;;5.42;63.96
79584;BME280;69053;57.338;18.700;2024-03-06T03:23:10;102934.56;;;5.42;63.84
79584;BME280;69053;57.338;18.700;2024-03-06T03:26:14;102936.75;;;5.48;63.71
79584;BME280;69053;57.338;18.700;2024-03-06T03:29:14;102935.63;;;5.51;63.49
79584;BME280;69053;57.338;18.700;2024-03-06T03:32:15;102941.91;;;5.51;63.55
79584;BME280;69053;57.338;18.700;2024-03-06T03:35:16;102943.88;;;5.49;63.89
79584;BME280;69053;57.338;18.700;2024-03-06T03:38:20;102943.63;;;5.52;63.51
79584;BME280;69053;57.338;18.700;2024-03-06T03:41:20;102946.69;;;5.48;63.56
79584;BME280;69053;57.338;18.700;2024-03-06T03:44:21;102934.44;;;5.43;63.52
79584;BME280;69053;57.338;18.700;2024-03-06T03:47:21;102945.13;;;5.45;63.13
79584;BME280;69053;57.338;18.700;2024-03-06T03:50:22;102953.34;;;5.43;63.22
79584;BME280;69053;57.338;18.700;2024-03-06T03:53:22;102948.19;;;5.40;63.46
79584;BME280;69053;57.338;18.700;2024-03-06T03:56:23;102949.91;;;5.41;62.94
79584;BME280;69053;57.338;18.700;2024-03-06T03:59:23;102959.13;;;5.39;63.32
79584;BME280;69053;57.338;18.700;2024-03-06T04:02:24;102959.13;;;5.39;63.62
79584;BME280;69053;57.338;18.700;2024-03-06T04:05:25;102952.00;;;5.38;63.54
79584;BME280;69053;57.338;18.700;2024-03-06T04:08:25;102960.88;;;5.40;63.40
79584;BME280;69053;57.338;18.700;2024-03-06T04:11:26;102960.72;;;5.41;63.35
79584;BME280;69053;57.338;18.700;2024-03-06T04:14:26;102957.16;;;5.41;63.03
79584;BME280;69053;57.338;18.700;2024-03-06T04:17:27;102963.28;;;5.43;63.36
79584;BME280;69053;57.338;18.700;2024-03-06T04:20:27;102957.16;;;5.41;63.38
79584;BME280;69053;57.338;18.700;2024-03-06T04:23:27;102955.78;;;5.47;63.29
79584;BME280;69053;57.338;18.700;2024-03-06T04:26:28;102961.34;;;5.45;63.03
79584;BME280;69053;57.338;18.700;2024-03-06T04:29:28;102958.00;;;5.41;63.62
79584;BME280;69053;57.338;18.700;2024-03-06T04:32:29;102960.88;;;5.40;62.94
79584;BME280;69053;57.338;18.700;2024-03-06T04:35:29;102959.00;;;5.40;63.37
79584;BME280;69053;57.338;18.700;2024-03-06T04:38:30;102957.69;;;5.35;63.28
79584;BME280;69053;57.338;18.700;2024-03-06T04:41:30;102960.38;;;5.35;63.25
79584;BME280;69053;57.338;18.700;2024-03-06T04:44:33;102961.25;;;5.35;63.75
79584;BME280;69053;57.338;18.700;2024-03-06T04:47:34;102963.59;;;5.29;63.60
79584;BME280;69053;57.338;18.700;2024-03-06T04:50:34;102967.63;;;5.34;63.40
79584;BME280;69053;57.338;18.700;2024-03-06T04:53:35;102962.09;;;5.36;63.46
79584;BME280;69053;57.338;18.700;2024-03-06T04:56:36;102971.19;;;5.35;63.30
79584;BME280;69053;57.338;18.700;2024-03-06T04:59:36;102969.09;;;5.38;63.49
79584;BME280;69053;57.338;18.700;2024-03-06T05:02:37;102965.63;;;5.36;63.35
79584;BME280;69053;57.338;18.700;2024-03-06T05:05:37;102971.19;;;5.35;63.57
79584;BME280;69053;57.338;18.700;2024-03-06T05:08:39;102975.25;;;5.29;63.64
79584;BME280;69053;57.338;18.700;2024-03-06T05:11:39;102973.53;;;5.28;63.71
79584;BME280;69053;57.338;18.700;2024-03-06T05:14:40;102982.50;;;5.29;63.38
79584;BME280;69053;57.338;18.700;2024-03-06T05:17:40;102987.19;;;5.26;63.23
79584;BME280;69053;57.338;18.700;2024-03-06T05:20:41;102991.44;;;5.29;63.12
79584;BME280;69053;57.338;18.700;2024-03-06T05:23:41;102998.84;;;5.27;63.70
79584;BME280;69053;57.338;18.700;2024-03-06T05:26:42;102998.22;;;5.35;63.33
79584;BME280;69053;57.338;18.700;2024-03-06T05:29:43;103004.34;;;5.37;62.90
79584;BME280;69053;57.338;18.700;2024-03-06T05:32:43;103003.50;;;5.25;63.52
79584;BME280;69053;57.338;18.700;2024-03-06T05:35:44;103009.75;;;5.37;63.16
79584;BME280;69053;57.338;18.700;2024-03-06T05:38:45;103001.03;;;5.33;62.76
79584;BME280;69053;57.338;18.700;2024-03-06T05:41:45;103017.38;;;5.32;62.94
79584;BME280;69053;57.338;18.700;2024-03-06T05:44:46;103011.09;;;5.31;63.14
79584;BME280;69053;57.338;18.700;2024-03-06T05:47:48;103014.28;;;5.36;63.29
79584;BME280;69053;57.338;18.700;2024-03-06T05:50:50;103018.13;;;5.34;63.29
79584;BME280;69053;57.338;18.700;2024-03-06T05:53:50;103014.78;;;5.41;62.76
79584;BME280;69053;57.338;18.700;2024-03-06T05:56:51;103029.03;;;5.43;63.21
79584;BME280;69053;57.338;18.700;2024-03-06T05:59:52;103031.63;;;5.45;62.73
79584;BME280;69053;57.338;18.700;2024-03-06T06:02:52;103032.34;;;5.47;62.83
79584;BME280;69053;57.338;18.700;2024-03-06T06:05:53;103033.81;;;5.51;62.68
79584;BME280;69053;57.338;18.700;2024-03-06T06:08:53;103034.16;;;5.58;62.28
79584;BME280;69053;57.338;18.700;2024-03-06T06:11:54;103034.03;;;5.59;62.37
79584;BME280;69053;57.338;18.700;2024-03-06T06:14:54;103030.84;;;5.66;62.48
79584;BME280;69053;57.338;18.700;2024-03-06T06:17:55;103039.69;;;5.68;62.46
79584;BME280;69053;57.338;18.700;2024-03-06T06:20:55;103029.38;;;5.61;62.55
79584;BME280;69053;57.338;18.700;2024-03-06T06:23:56;103038.44;;;5.72;62.38
79584;BME280;69053;57.338;18.700;2024-03-06T06:26:56;103045.16;;;5.77;61.77
79584;BME280;69053;57.338;18.700;2024-03-06T06:29:57;103046.78;;;5.80;62.42
79584;BME280;69053;57.338;18.700;2024-03-06T06:32:58;103051.66;;;5.86;62.08
79584;BME280;69053;57.338;18.700;2024-03-06T06:35:58;103051.88;;;5.94;62.22
79584;BME280;69053;57.338;18.700;2024-03-06T06:38:59;103056.59;;;6.04;61.65
79584;BME280;69053;57.338;18.700;2024-03-06T06:41:59;103058.03;;;6.08;61.77
79584;BME280;69053;57.338;18.700;2024-03-06T06:45:00;103063.78;;;6.14;61.48
79584;BME280;69053;57.338;18.700;2024-03-06T06:48:00;103069.53;;;6.21;61.29
79584;BME280;69053;57.338;18.700;2024-03-06T06:51:01;103073.81;;;6.24;61.30
79584;BME280;69053;57.338;18.700;2024-03-06T06:54:03;103074.16;;;6.30;61.15
79584;BME280;69053;57.338;18.700;2024-03-06T06:57:04;103079.59;;;6.30;61.16
79584;BME280;69053;57.338;18.700;2024-03-06T07:00:06;103081.25;;;6.43;61.11
79584;BME280;69053;57.338;18.700;2024-03-06T07:03:13;103085.44;;;6.47;60.86
79584;BME280;69053;57.338;18.700;2024-03-06T07:06:13;103091.06;;;6.55;60.61
79584;BME280;69053;57.338;18.700;2024-03-06T07:09:14;103087.06;;;6.59;60.52
79584;BME280;69053;57.338;18.700;2024-03-06T07:12:15;103089.41;;;6.64;60.29
79584;BME280;69053;57.338;18.700;2024-03-06T07:15:16;103090.00;;;6.67;60.36
79584;BME280;69053;57.338;18.700;2024-03-06T07:18:16;103099.94;;;6.67;60.45
79584;BME280;69053;57.338;18.700;2024-03-06T07:21:17;103097.31;;;6.76;60.10
79584;BME280;69053;57.338;18.700;2024-03-06T07:24:18;103097.66;;;6.83;59.88
79584;BME280;69053;57.338;18.700;2024-03-06T07:27:18;103094.94;;;6.83;59.58
79584;BME280;69053;57.338;18.700;2024-03-06T07:30:19;103104.38;;;6.89;59.56
79584;BME280;69053;57.338;18.700;2024-03-06T07:33:20;103103.84;;;6.95;59.24
79584;BME280;69053;57.338;18.700;2024-03-06T07:36:20;103109.53;;;6.92;59.19
79584;BME280;69053;57.338;18.700;2024-03-06T07:39:22;103105.03;;;7.02;59.05
79584;BME280;69053;57.338;18.700;2024-03-06T07:42:22;103101.78;;;7.08;59.21
79584;BME280;69053;57.338;18.700;2024-03-06T07:45:22;103110.91;;;7.07;58.56
79584;BME280;69053;57.338;18.700;2024-03-06T07:48:23;103120.34;;;7.13;58.63
79584;BME280;69053;57.338;18.700;2024-03-06T07:51:23;103118.53;;;7.23;58.60
79584;BME280;69053;57.338;18.700;2024-03-06T07:54:24;103118.88;;;7.30;58.61
79584;BME280;69053;57.338;18.700;2024-03-06T07:57:24;103126.94;;;7.41;58.26
79584;BME280;69053;57.338;18.700;2024-03-06T08:00:25;103122.81;;;7.47;57.86
79584;BME280;69053;57.338;18.700;2024-03-06T08:03:27;103129.94;;;7.48;57.75
79584;BME280;69053;57.338;18.700;2024-03-06T08:06:27;103132.66;;;7.48;57.91
79584;BME280;69053;57.338;18.700;2024-03-06T08:09:29;103127.53;;;7.55;57.53
79584;BME280;69053;57.338;18.700;2024-03-06T08:12:29;103137.13;;;7.59;57.62
79584;BME280;69053;57.338;18.700;2024-03-06T08:15:30;103124.53;;;7.58;57.07
79584;BME280;69053;57.338;18.700;2024-03-06T08:18:30;103132.28;;;7.62;57.59
79584;BME280;69053;57.338;18.700;2024-03-06T08:21:32;103135.19;;;7.70;57.04
79584;BME280;69053;57.338;18.700;2024-03-06T08:24:33;103139.63;;;7.81;57.24
79584;BME280;69053;57.338;18.700;2024-03-06T08:27:38;103143.50;;;7.88;57.08
79584;BME280;69053;57.338;18.700;2024-03-06T08:30:38;103138.53;;;8.03;56.22
79584;BME280;69053;57.338;18.700;2024-03-06T08:33:39;103144.38;;;7.99;56.64
79584;BME280;69053;57.338;18.700;2024-03-06T08:36:39;103147.41;;;8.05;56.39
79584;BME280;69053;57.338;18.700;2024-03-06T08:39:40;103131.56;;;8.11;56.08
79584;BME280;69053;57.338;18.700;2024-03-06T08:42:50;103149.56;;;8.21;55.67
79584;BME280;69053;57.338;18.700;2024-03-06T08:45:50;103141.72;;;8.18;55.10
79584;BME280;69053;57.338;18.700;2024-03-06T08:48:50;103158.28;;;8.15;55.29
79584;BME280;69053;57.338;18.700;2024-03-06T08:51:51;103154.47;;;8.37;55.28
79584;BME280;69053;57.338;18.700;2024-03-06T08:54:51;103157.63;;;8.52;55.02
79584;BME280;69053;57.338;18.700;2024-03-06T08:57:52;103160.03;;;8.75;54.50
79584;BME280;69053;57.338;18.700;2024-03-06T09:00:52;103163.94;;;8.72;54.60
79584;BME280;69053;57.338;18.700;2024-03-06T09:03:53;103166.22;;;8.77;54.53
79584;BME280;69053;57.338;18.700;2024-03-06T09:06:54;103158.19;;;8.85;54.69
79584;BME280;69053;57.338;18.700;2024-03-06T09:09:55;103156.19;;;8.87;54.29
79584;BME280;69053;57.338;18.700;2024-03-06T09:12:55;103171.22;;;8.91;53.39
79584;BME280;69053;57.338;18.700;2024-03-06T09:15:55;103174.06;;;8.90;53.68
79584;BME280;69053;57.338;18.700;2024-03-06T09:18:56;103173.78;;;9.03;53.69
79584;BME280;69053;57.338;18.700;2024-03-06T09:21:56;103180.50;;;9.08;53.58
79584;BME280;69053;57.338;18.700;2024-03-06T09:24:57;103173.59;;;9.14;53.34
79584;BME280;69053;57.338;18.700;2024-03-06T09:27:57;103175.28;;;9.25;53.57
79584;BME280;69053;57.338;18.700;2024-03-06T09:31:00;103169.91;;;9.05;52.66
79584;BME280;69053;57.338;18.700;2024-03-06T09:34:01;103177.03;;;9.16;52.87
79584;BME280;69053;57.338;18.700;2024-03-06T09:37:01;103184.75;;;9.20;53.09
79584;BME280;69053;57.338;18.700;2024-03-06T09:40:04;103193.28;;;9.45;53.09
79584;BME280;69053;57.338;18.700;2024-03-06T09:43:04;103183.34;;;9.54;52.08
79584;BME280;69053;57.338;18.700;2024-03-06T09:46:07;103194.28;;;9.44;51.33
79584;BME280;69053;57.338;18.700;2024-03-06T09:49:08;103188.09;;;9.52;51.94
79584;BME280;69053;57.338;18.700;2024-03-06T09:52:10;103189.78;;;9.63;51.11
79584;BME280;69053;57.338;18.700;2024-03-06T09:55:11;103188.75;;;9.73;51.66
79584;BME280;69053;57.338;18.700;2024-03-06T09:58:12;103193.78;;;9.68;50.88
79584;BME280;69053;57.338;18.700;2024-03-06T10:01:14;103199.53;;;9.55;52.09
79584;BME280;69053;57.338;18.700;2024-03-06T10:07:19;103195.34;;;9.99;51.91
79584;BME280;69053;57.338;18.700;2024-03-06T10:10:20;103196.34;;;10.25;51.18
79584;BME280;69053;57.338;18.700;2024-03-06T10:13:24;103194.00;;;10.30;49.81
79584;BME280;69053;57.338;18.700;2024-03-06T10:16:25;103194.31;;;10.27;49.73
79584;BME280;69053;57.338;18.700;2024-03-06T10:19:29;103205.06;;;10.29;49.98
79584;BME280;69053;57.338;18.700;2024-03-06T10:22:30;103204.06;;;10.30;49.69
79584;BME280;69053;57.338;18.700;2024-03-06T10:25:30;103199.34;;;10.50;50.57
79584;BME280;69053;57.338;18.700;2024-03-06T10:28:32;103204.03;;;10.58;50.15
79584;BME280;69053;57.338;18.700;2024-03-06T10:31:32;103203.41;;;10.46;49.63
79584;BME280;69053;57.338;18.700;2024-03-06T10:34:33;103197.66;;;10.49;49.59
79584;BME280;69053;57.338;18.700;2024-03-06T10:37:34;103197.34;;;10.52;49.68
79584;BME280;69053;57.338;18.700;2024-03-06T10:40:37;103201.16;;;10.59;49.85
79584;BME280;69053;57.338;18.700;2024-03-06T10:43:38;103195.47;;;10.70;49.66
79584;BME280;69053;57.338;18.700;2024-03-06T10:46:43;103195.47;;;10.70;49.02
79584;BME280;69053;57.338;18.700;2024-03-06T10:49:45;103197.88;;;10.92;48.77
79584;BME280;69053;57.338;18.700;2024-03-06T10:52:47;103191.78;;;10.98;48.53
79584;BME280;69053;57.338;18.700;2024-03-06T10:55:50;103195.53;;;10.79;47.45
79584;BME280;69053;57.338;18.700;2024-03-06T10:58:52;103192.59;;;10.72;48.26
79584;BME280;69053;57.338;18.700;2024-03-06T11:01:56;103191.72;;;10.89;48.48
79584;BME280;69053;57.338;18.700;2024-03-06T11:04:56;103196.47;;;11.05;48.20
79584;BME280;69053;57.338;18.700;2024-03-06T11:07:58;103197.84;;;11.10;47.34
79584;BME280;69053;57.338;18.700;2024-03-06T11:11:18;103206.06;;;10.92;46.86
79584;BME280;69053;57.338;18.700;2024-03-06T11:14:24;103200.00;;;10.80;47.56
79584;BME280;69053;57.338;18.700;2024-03-06T11:17:27;103193.16;;;11.02;47.32
79584;BME280;69053;57.338;18.700;2024-03-06T11:20:33;103194.19;;;11.01;46.96
79584;BME280;69053;57.338;18.700;2024-03-06T11:23:33;103186.88;;;11.27;47.12
79584;BME280;69053;57.338;18.700;2024-03-06T11:26:35;103196.41;;;11.23;46.31
79584;BME280;69053;57.338;18.700;2024-03-06T11:30:07;103193.59;;;11.33;46.04
79584;BME280;69053;57.338;18.700;2024-03-06T11:33:13;103197.16;;;11.34;46.60
79584;BME280;69053;57.338;18.700;2024-03-06T11:39:29;103202.03;;;11.48;46.11
79584;BME280;69053;57.338;18.700;2024-03-06T11:42:34;103202.75;;;11.58;46.21
79584;BME280;69053;57.338;18.700;2024-03-06T11:45:45;103202.16;;;11.38;45.30
79584;BME280;69053;57.338;18.700;2024-03-06T11:48:56;103202.84;;;11.14;45.96
79584;BME280;69053;57.338;18.700;2024-03-06T11:52:03;103200.22;;;11.31;46.06
79584;BME280;69053;57.338;18.700;2024-03-06T11:55:05;103198.28;;;11.49;45.97
79584;BME280;69053;57.338;18.700;2024-03-06T11:58:06;103204.81;;;11.56;45.71
79584;BME280;69053;57.338;18.700;2024-03-06T12:01:08;103208.59;;;11.63;45.67
79584;BME280;69053;57.338;18.700;2024-03-06T12:04:09;103212.56;;;11.43;44.64
79584;BME280;69053;57.338;18.700;2024-03-06T12:07:09;103208.16;;;11.24;45.43
79584;BME280;69053;57.338;18.700;2024-03-06T12:10:10;103207.78;;;11.37;45.79
79584;BME280;69053;57.338;18.700;2024-03-06T12:13:11;103204.00;;;11.38;45.78
79584;BME280;69053;57.338;18.700;2024-03-06T12:16:11;103207.78;;;11.37;45.63
79584;BME280;69053;57.338;18.700;2024-03-06T12:19:12;103202.75;;;11.50;45.74
79584;BME280;69053;57.338;18.700;2024-03-06T12:22:13;103207.63;;;11.47;45.55
79584;BME280;69053;57.338;18.700;2024-03-06T12:25:33;103210.06;;;11.50;44.69
79584;BME280;69053;57.338;18.700;2024-03-06T12:28:33;103212.69;;;11.33;44.48
79584;BME280;69053;57.338;18.700;2024-03-06T12:31:35;103215.13;;;11.18;45.60
79584;BME280;69053;57.338;18.700;2024-03-06T12:34:36;103208.41;;;11.31;45.69
79584;BME280;69053;57.338;18.700;2024-03-06T12:37:37;103222.91;;;11.57;45.42
79584;BME280;69053;57.338;18.700;2024-03-06T12:40:37;103210.44;;;11.29;44.56
79584;BME280;69053;57.338;18.700;2024-03-06T12:43:38;103218.09;;;11.07;45.72
79584;BME280;69053;57.338;18.700;2024-03-06T12:46:38;103217.25;;;11.06;45.59
79584;BME280;69053;57.338;18.700;2024-03-06T12:49:39;103215.22;;;11.08;45.68
79584;BME280;69053;57.338;18.700;2024-03-06T12:52:39;103216.41;;;11.06;45.87
79584;BME280;69053;57.338;18.700;2024-03-06T12:55:40;103220.00;;;11.33;45.92
79584;BME280;69053;57.338;18.700;2024-03-06T12:58:43;103215.72;;;11.56;45.61
79584;BME280;69053;57.338;18.700;2024-03-06T13:01:44;103218.13;;;11.59;45.26
79584;BME280;69053;57.338;18.700;2024-03-06T13:04:45;103218.63;;;11.55;45.05
79584;BME280;69053;57.338;18.700;2024-03-06T13:07:45;103223.97;;;11.38;45.24
79584;BME280;69053;57.338;18.700;2024-03-06T13:10:46;103220.91;;;11.41;45.13
79584;BME280;69053;57.338;18.700;2024-03-06T13:13:46;103219.63;;;11.27;45.16
79584;BME280;69053;57.338;18.700;2024-03-06T13:16:47;103223.69;;;11.23;45.29
79584;BME280;69053;57.338;18.700;2024-03-06T13:19:48;103215.72;;;11.30;45.38
79584;BME280;69053;57.338;18.700;2024-03-06T13:22:48;103222.72;;;11.33;45.56
79584;BME280;69053;57.338;18.700;2024-03-06T13:25:48;103218.56;;;11.20;45.23
79584;BME280;69053;57.338;18.700;2024-03-06T13:28:49;103216.09;;;11.09;45.60
79584;BME280;69053;57.338;18.700;2024-03-06T13:31:49;103221.84;;;11.06;45.54
79584;BME280;69053;57.338;18.700;2024-03-06T13:34:50;103223.81;;;10.96;46.06
79584;BME280;69053;57.338;18.700;2024-03-06T13:37:50;103227.31;;;10.88;45.80
79584;BME280;69053;57.338;18.700;2024-03-06T13:40:51;103221.41;;;10.93;46.02
79584;BME280;69053;57.338;18.700;2024-03-06T13:43:51;103216.75;;;10.85;46.13
79584;BME280;69053;57.338;18.700;2024-03-06T13:46:52;103215.09;;;10.74;46.10
79584;BME280;69053;57.338;18.700;2024-03-06T13:49:52;103219.75;;;10.46;46.47
79584;BME280;69053;57.338;18.700;2024-03-06T13:52:53;103225.75;;;10.22;47.17
79584;BME280;69053;57.338;18.700;2024-03-06T13:55:54;103221.38;;;10.11;47.24
79584;BME280;69053;57.338;18.700;2024-03-06T13:58:54;103222.00;;;9.95;47.90
79584;BME280;69053;57.338;18.700;2024-03-06T14:01:55;103220.06;;;9.87;47.47
79584;BME280;69053;57.338;18.700;2024-03-06T14:04:55;103222.50;;;9.81;47.97
79584;BME280;69053;57.338;18.700;2024-03-06T14:07:56;103229.84;;;9.80;48.05
79584;BME280;69053;57.338;18.700;2024-03-06T14:10:56;103226.56;;;9.76;48.33
79584;BME280;69053;57.338;18.700;2024-03-06T14:13:57;103219.13;;;9.59;48.08
79584;BME280;69053;57.338;18.700;2024-03-06T14:16:58;103216.47;;;9.49;48.35
79584;BME280;69053;57.338;18.700;2024-03-06T14:19:59;103217.91;;;9.44;48.42
79584;BME280;69053;57.338;18.700;2024-03-06T14:22:59;103217.38;;;9.30;49.30
79584;BME280;69053;57.338;18.700;2024-03-06T14:25:59;103221.97;;;9.20;49.05
79584;BME280;69053;57.338;18.700;2024-03-06T14:29:02;103214.25;;;9.06;49.41
79584;BME280;69053;57.338;18.700;2024-03-06T14:32:02;103204.25;;;9.06;50.01
79584;BME280;69053;57.338;18.700;2024-03-06T14:35:03;103211.69;;;8.94;50.35
79584;BME280;69053;57.338;18.700;2024-03-06T14:38:04;103219.16;;;8.92;50.19
79584;BME280;69053;57.338;18.700;2024-03-06T14:41:04;103223.84;;;8.90;50.50
79584;BME280;69053;57.338;18.700;2024-03-06T14:44:06;103222.41;;;8.86;50.30
79584;BME280;69053;57.338;18.700;2024-03-06T14:47:07;103220.56;;;8.87;50.76
79584;BME280;69053;57.338;18.700;2024-03-06T14:50:07;103217.00;;;8.86;50.21
79584;BME280;69053;57.338;18.700;2024-03-06T14:53:08;103224.56;;;8.82;50.19
79584;BME280;69053;57.338;18.700;2024-03-06T14:56:08;103222.88;;;8.72;50.52
79584;BME280;69053;57.338;18.700;2024-03-06T14:59:11;103224.13;;;8.58;50.79
79584;BME280;69053;57.338;18.700;2024-03-06T15:02:11;103223.09;;;8.49;51.06
79584;BME280;69053;57.338;18.700;2024-03-06T15:05:13;103223.72;;;8.53;51.34
79584;BME280;69053;57.338;18.700;2024-03-06T15:08:13;103223.09;;;8.49;51.56
79584;BME280;69053;57.338;18.700;2024-03-06T15:11:14;103212.84;;;8.53;50.92
79584;BME280;69053;57.338;18.700;2024-03-06T15:14:15;103211.31;;;8.39;50.90
79584;BME280;69053;57.338;18.700;2024-03-06T15:17:15;103205.50;;;8.43;51.77
79584;BME280;69053;57.338;18.700;2024-03-06T15:20:16;103205.81;;;8.50;51.62
79584;BME280;69053;57.338;18.700;2024-03-06T15:23:17;103207.66;;;8.59;51.08
79584;BME280;69053;57.338;18.700;2024-03-06T15:26:17;103211.53;;;8.57;51.55
79584;BME280;69053;57.338;18.700;2024-03-06T15:29:18;103210.13;;;8.53;51.09
79584;BME280;69053;57.338;18.700;2024-03-06T15:32:18;103204.09;;;8.49;51.18
79584;BME280;69053;57.338;18.700;2024-03-06T15:35:19;103208.81;;;8.47;51.15
79584;BME280;69053;57.338;18.700;2024-03-06T15:38:19;103201.63;;;8.36;51.57
79584;BME280;69053;57.338;18.700;2024-03-06T15:41:20;103209.03;;;8.24;50.91
79584;BME280;69053;57.338;18.700;2024-03-06T15:44:21;103205.25;;;8.06;51.51
79584;BME280;69053;57.338;18.700;2024-03-06T15:47:21;103206.34;;;7.94;51.15
79584;BME280;69053;57.338;18.700;2024-03-06T15:50:22;103203.91;;;7.81;51.58